sensor_id;sensor_type;location;lat;lon;timestamp;temperature;humidity
60868;DHT22;46702;48.370;10.794;2023-03-02T00:02:03;-0.30;99.90
60868;DHT22;46702;48.370;10.794;2023-03-02T00:04:39;-0.20;99.90
60868;DHT22;46702;48.370;10.794;2023-03-02T00:07:08;-0.30;99.90
60868;DHT22;46702;48.370;10.794;2023-03-02T00:09:35;-0.30;99.90
60868;DHT22;46702;48.370;10.794;2023-03-02T00:12:01;-0.30;99.90
60868;DHT22;46702;48.370;10.794;2023-03-02T00:14:27;-0.30;99.90
60868;DHT22;46702;48.370;10.794;2023-03-02T00:16:53;-0.20;99.90
60868;DHT22;46702;48.370;10.794;2023-03-02T00:19:18;-0.30;99.90
60868;DHT22;46702;48.370;10.794;2023-03-02T00:21:44;-0.40;99.90
60868;DHT22;46702;48.370;10.794;2023-03-02T00:24:09;-0.40;99.90
60868;DHT22;46702;48.370;10.794;2023-03-02T00:26:35;-0.50;99.90
60868;DHT22;46702;48.370;10.794;2023-03-02T00:29:02;-0.50;99.90
60868;DHT22;46702;48.370;10.794;2023-03-02T00:31:27;-0.50;99.90
60868;DHT22;46702;48.370;10.794;2023-03-02T00:33:53;-0.50;99.90
60868;DHT22;46702;48.370;10.794;2023-03-02T00:36:21;-0.50;99.90
60868;DHT22;46702;48.370;10.794;2023-03-02T00:38:47;-0.40;99.90
60868;DHT22;46702;48.370;10.794;2023-03-02T00:41:13;-0.50;99.90
60868;DHT22;46702;48.370;10.794;2023-03-02T00:43:40;-0.40;99.90
60868;DHT22;46702;48.370;10.794;2023-03-02T00:46:14;-0.40;99.90
60868;DHT22;46702;48.370;10.794;2023-03-02T00:48:40;-0.40;99.90
60868;DHT22;46702;48.370;10.794;2023-03-02T00:51:06;-0.30;99.90
60868;DHT22;46702;48.370;10.794;2023-03-02T00:53:33;-0.20;99.90
60868;DHT22;46702;48.370;10.794;2023-03-02T00:55:59;-0.20;99.90
60868;DHT22;46702;48.370;10.794;2023-03-02T00:58:26;-0.10;99.90
60868;DHT22;46702;48.370;10.794;2023-03-02T01:00:52;-0.20;99.90
60868;DHT22;46702;48.370;10.794;2023-03-02T01:03:18;-0.20;99.90
60868;DHT22;46702;48.370;10.794;2023-03-02T01:05:43;-0.20;99.90
60868;DHT22;46702;48.370;10.794;2023-03-02T01:08:09;-0.10;99.90
60868;DHT22;46702;48.370;10.794;2023-03-02T01:10:35;-0.10;99.90
60868;DHT22;46702;48.370;10.794;2023-03-02T01:13:02;-0.30;99.90
60868;DHT22;46702;48.370;10.794;2023-03-02T01:15:27;-0.30;99.90
60868;DHT22;46702;48.370;10.794;2023-03-02T01:17:53;-0.40;99.90
60868;DHT22;46702;48.370;10.794;2023-03-02T01:20:19;-0.30;99.90
60868;DHT22;46702;48.370;10.794;2023-03-02T01:22:44;-0.40;99.90
60868;DHT22;46702;48.370;10.794;2023-03-02T01:25:11;-0.30;99.90
60868;DHT22;46702;48.370;10.794;2023-03-02T01:27:40;-0.40;99.90
60868;DHT22;46702;48.370;10.794;2023-03-02T01:30:06;-0.50;99.90
60868;DHT22;46702;48.370;10.794;2023-03-02T01:32:32;-0.50;99.90
60868;DHT22;46702;48.370;10.794;2023-03-02T01:34:57;-0.50;99.90
60868;DHT22;46702;48.370;10.794;2023-03-02T01:37:23;-0.50;99.90
60868;DHT22;46702;48.370;10.794;2023-03-02T01:39:49;-0.50;99.90
60868;DHT22;46702;48.370;10.794;2023-03-02T01:42:15;-0.50;99.90
60868;DHT22;46702;48.370;10.794;2023-03-02T01:44:47;-0.60;99.90
60868;DHT22;46702;48.370;10.794;2023-03-02T01:49:42;-0.60;99.90
60868;DHT22;46702;48.370;10.794;2023-03-02T01:52:09;-0.50;99.90
60868;DHT22;46702;48.370;10.794;2023-03-02T01:54:37;-0.50;99.90
60868;DHT22;46702;48.370;10.794;2023-03-02T01:57:05;-0.50;99.90
60868;DHT22;46702;48.370;10.794;2023-03-02T01:59:32;-0.60;99.90
60868;DHT22;46702;48.370;10.794;2023-03-02T02:02:03;-0.50;99.90
60868;DHT22;46702;48.370;10.794;2023-03-02T02:04:30;-0.40;99.90
60868;DHT22;46702;48.370;10.794;2023-03-02T02:07:01;-0.50;99.90
60868;DHT22;46702;48.370;10.794;2023-03-02T02:09:30;-0.50;99.90
60868;DHT22;46702;48.370;10.794;2023-03-02T02:11:58;-0.50;99.90
60868;DHT22;46702;48.370;10.794;2023-03-02T02:14:23;-0.60;99.90
60868;DHT22;46702;48.370;10.794;2023-03-02T02:16:50;-0.60;99.90
60868;DHT22;46702;48.370;10.794;2023-03-02T02:22:46;-0.40;99.90
60868;DHT22;46702;48.370;10.794;2023-03-02T02:28:05;-0.50;99.90
60868;DHT22;46702;48.370;10.794;2023-03-02T02:30:35;-0.40;99.90
60868;DHT22;46702;48.370;10.794;2023-03-02T02:33:03;-0.40;99.90
60868;DHT22;46702;48.370;10.794;2023-03-02T02:35:30;-0.30;99.90
60868;DHT22;46702;48.370;10.794;2023-03-02T02:38:04;-0.40;99.90
60868;DHT22;46702;48.370;10.794;2023-03-02T02:40:44;-0.40;99.90
60868;DHT22;46702;48.370;10.794;2023-03-02T02:43:15;-0.50;99.90
60868;DHT22;46702;48.370;10.794;2023-03-02T02:45:42;-0.50;99.90
60868;DHT22;46702;48.370;10.794;2023-03-02T02:48:14;-0.50;99.90
60868;DHT22;46702;48.370;10.794;2023-03-02T02:50:41;-0.60;99.90
60868;DHT22;46702;48.370;10.794;2023-03-02T02:53:14;-0.60;99.90
60868;DHT22;46702;48.370;10.794;2023-03-02T02:55:42;-0.60;99.90
60868;DHT22;46702;48.370;10.794;2023-03-02T03:00:44;-0.50;99.90
60868;DHT22;46702;48.370;10.794;2023-03-02T03:03:18;-0.50;99.90
60868;DHT22;46702;48.370;10.794;2023-03-02T03:05:54;-0.50;99.90
60868;DHT22;46702;48.370;10.794;2023-03-02T03:11:18;-0.50;99.90
60868;DHT22;46702;48.370;10.794;2023-03-02T03:13:53;-0.50;99.90
60868;DHT22;46702;48.370;10.794;2023-03-02T03:16:20;-0.50;99.90
60868;DHT22;46702;48.370;10.794;2023-03-02T03:18:47;-0.60;99.90
60868;DHT22;46702;48.370;10.794;2023-03-02T03:21:16;-0.60;99.90
60868;DHT22;46702;48.370;10.794;2023-03-02T03:23:42;-0.70;99.90
60868;DHT22;46702;48.370;10.794;2023-03-02T03:26:08;-0.70;99.90
60868;DHT22;46702;48.370;10.794;2023-03-02T03:28:34;-0.70;99.90
60868;DHT22;46702;48.370;10.794;2023-03-02T03:31:00;-0.60;99.90
60868;DHT22;46702;48.370;10.794;2023-03-02T03:33:26;-0.60;99.90
60868;DHT22;46702;48.370;10.794;2023-03-02T03:35:52;-0.50;99.90
60868;DHT22;46702;48.370;10.794;2023-03-02T03:38:18;-0.50;99.90
60868;DHT22;46702;48.370;10.794;2023-03-02T03:40:43;-0.50;99.90
60868;DHT22;46702;48.370;10.794;2023-03-02T03:43:09;-0.50;99.90
60868;DHT22;46702;48.370;10.794;2023-03-02T03:45:38;-0.50;99.90
60868;DHT22;46702;48.370;10.794;2023-03-02T03:48:04;-0.60;99.90
60868;DHT22;46702;48.370;10.794;2023-03-02T03:50:29;-0.70;99.90
60868;DHT22;46702;48.370;10.794;2023-03-02T03:52:55;-0.70;99.90
60868;DHT22;46702;48.370;10.794;2023-03-02T03:55:21;-0.70;99.90
60868;DHT22;46702;48.370;10.794;2023-03-02T03:57:46;-0.70;99.90
60868;DHT22;46702;48.370;10.794;2023-03-02T04:00:13;-0.70;99.90
60868;DHT22;46702;48.370;10.794;2023-03-02T04:02:40;-0.70;99.90
60868;DHT22;46702;48.370;10.794;2023-03-02T04:05:06;-0.70;99.90
60868;DHT22;46702;48.370;10.794;2023-03-02T04:07:35;-0.70;99.90
60868;DHT22;46702;48.370;10.794;2023-03-02T04:10:02;-0.70;99.90
60868;DHT22;46702;48.370;10.794;2023-03-02T04:12:37;-0.60;99.90
60868;DHT22;46702;48.370;10.794;2023-03-02T04:15:04;-0.60;99.90
60868;DHT22;46702;48.370;10.794;2023-03-02T04:17:31;-0.50;99.90
60868;DHT22;46702;48.370;10.794;2023-03-02T04:19:56;-0.70;99.90
60868;DHT22;46702;48.370;10.794;2023-03-02T04:22:23;-0.70;99.90
60868;DHT22;46702;48.370;10.794;2023-03-02T04:24:49;-0.70;99.90
60868;DHT22;46702;48.370;10.794;2023-03-02T04:27:15;-0.70;99.90
60868;DHT22;46702;48.370;10.794;2023-03-02T04:29:41;-0.80;99.90
60868;DHT22;46702;48.370;10.794;2023-03-02T04:32:08;-0.80;99.90
60868;DHT22;46702;48.370;10.794;2023-03-02T04:34:34;-0.80;99.90
60868;DHT22;46702;48.370;10.794;2023-03-02T04:37:00;-0.80;99.90
60868;DHT22;46702;48.370;10.794;2023-03-02T04:39:26;-0.80;99.90
60868;DHT22;46702;48.370;10.794;2023-03-02T04:41:53;-0.80;99.90
60868;DHT22;46702;48.370;10.794;2023-03-02T04:44:19;-0.70;99.90
60868;DHT22;46702;48.370;10.794;2023-03-02T04:46:45;-0.70;99.90
60868;DHT22;46702;48.370;10.794;2023-03-02T04:49:12;-0.70;99.90
60868;DHT22;46702;48.370;10.794;2023-03-02T04:51:40;-0.80;99.90
60868;DHT22;46702;48.370;10.794;2023-03-02T04:54:15;-0.80;99.90
60868;DHT22;46702;48.370;10.794;2023-03-02T04:56:41;-0.90;99.90
60868;DHT22;46702;48.370;10.794;2023-03-02T04:59:06;-0.90;99.90
60868;DHT22;46702;48.370;10.794;2023-03-02T05:01:32;-0.90;99.90
60868;DHT22;46702;48.370;10.794;2023-03-02T05:03:58;-0.90;99.90
60868;DHT22;46702;48.370;10.794;2023-03-02T05:06:23;-0.90;99.90
60868;DHT22;46702;48.370;10.794;2023-03-02T05:08:50;-0.80;99.90
60868;DHT22;46702;48.370;10.794;2023-03-02T05:11:16;-0.90;99.90
60868;DHT22;46702;48.370;10.794;2023-03-02T05:13:53;-0.90;99.90
60868;DHT22;46702;48.370;10.794;2023-03-02T05:16:20;-0.90;99.90
60868;DHT22;46702;48.370;10.794;2023-03-02T05:18:46;-0.90;99.90
60868;DHT22;46702;48.370;10.794;2023-03-02T05:21:12;-0.90;99.90
60868;DHT22;46702;48.370;10.794;2023-03-02T05:23:39;-0.90;99.90
60868;DHT22;46702;48.370;10.794;2023-03-02T05:26:05;-0.80;99.90
60868;DHT22;46702;48.370;10.794;2023-03-02T05:28:30;-0.80;99.90
60868;DHT22;46702;48.370;10.794;2023-03-02T05:30:56;-0.90;99.90
60868;DHT22;46702;48.370;10.794;2023-03-02T05:33:22;-0.80;99.90
60868;DHT22;46702;48.370;10.794;2023-03-02T05:35:47;-0.90;99.90
60868;DHT22;46702;48.370;10.794;2023-03-02T05:38:13;-0.80;99.90
60868;DHT22;46702;48.370;10.794;2023-03-02T05:40:39;-0.80;99.90
60868;DHT22;46702;48.370;10.794;2023-03-02T05:43:07;-0.70;99.90
60868;DHT22;46702;48.370;10.794;2023-03-02T05:45:35;-0.70;99.90
60868;DHT22;46702;48.370;10.794;2023-03-02T05:48:01;-0.60;99.90
60868;DHT22;46702;48.370;10.794;2023-03-02T05:50:27;-0.60;99.90
60868;DHT22;46702;48.370;10.794;2023-03-02T05:52:53;-0.70;99.90
60868;DHT22;46702;48.370;10.794;2023-03-02T05:55:19;-0.70;99.90
60868;DHT22;46702;48.370;10.794;2023-03-02T05:57:45;-0.80;99.90
60868;DHT22;46702;48.370;10.794;2023-03-02T06:00:15;-0.90;99.90
60868;DHT22;46702;48.370;10.794;2023-03-02T06:02:41;-1.00;99.90
60868;DHT22;46702;48.370;10.794;2023-03-02T06:05:11;-1.10;99.90
60868;DHT22;46702;48.370;10.794;2023-03-02T06:07:38;-1.10;99.90
60868;DHT22;46702;48.370;10.794;2023-03-02T06:10:04;-1.10;99.90
60868;DHT22;46702;48.370;10.794;2023-03-02T06:12:30;-1.10;99.90
60868;DHT22;46702;48.370;10.794;2023-03-02T06:14:56;-1.10;99.90
60868;DHT22;46702;48.370;10.794;2023-03-02T06:17:24;-1.10;99.90
60868;DHT22;46702;48.370;10.794;2023-03-02T06:19:49;-1.10;99.90
60868;DHT22;46702;48.370;10.794;2023-03-02T06:22:15;-1.10;99.90
60868;DHT22;46702;48.370;10.794;2023-03-02T06:24:41;-1.10;99.90
60868;DHT22;46702;48.370;10.794;2023-03-02T06:27:06;-1.00;99.90
60868;DHT22;46702;48.370;10.794;2023-03-02T06:29:32;-1.00;99.90
60868;DHT22;46702;48.370;10.794;2023-03-02T06:31:57;-1.00;99.90
60868;DHT22;46702;48.370;10.794;2023-03-02T06:34:23;-1.00;99.90
60868;DHT22;46702;48.370;10.794;2023-03-02T06:36:48;-1.10;99.90
60868;DHT22;46702;48.370;10.794;2023-03-02T06:39:14;-1.10;99.90
60868;DHT22;46702;48.370;10.794;2023-03-02T06:41:44;-1.10;99.90
60868;DHT22;46702;48.370;10.794;2023-03-02T06:44:10;-1.10;99.90
60868;DHT22;46702;48.370;10.794;2023-03-02T06:46:37;-1.00;99.90
60868;DHT22;46702;48.370;10.794;2023-03-02T06:49:03;-1.00;99.90
60868;DHT22;46702;48.370;10.794;2023-03-02T06:51:28;-0.90;99.90
60868;DHT22;46702;48.370;10.794;2023-03-02T06:53:54;-0.90;99.90
60868;DHT22;46702;48.370;10.794;2023-03-02T06:56:20;-0.90;99.90
60868;DHT22;46702;48.370;10.794;2023-03-02T06:58:45;-0.80;99.90
60868;DHT22;46702;48.370;10.794;2023-03-02T07:01:11;-0.80;99.90
60868;DHT22;46702;48.370;10.794;2023-03-02T07:03:37;-0.80;99.90
60868;DHT22;46702;48.370;10.794;2023-03-02T07:06:03;-0.70;99.90
60868;DHT22;46702;48.370;10.794;2023-03-02T07:08:28;-0.60;99.90
60868;DHT22;46702;48.370;10.794;2023-03-02T07:10:54;-0.60;99.90
60868;DHT22;46702;48.370;10.794;2023-03-02T07:13:20;-0.50;99.90
60868;DHT22;46702;48.370;10.794;2023-03-02T07:15:45;-0.50;99.90
60868;DHT22;46702;48.370;10.794;2023-03-02T07:18:11;-0.40;99.90
60868;DHT22;46702;48.370;10.794;2023-03-02T07:20:36;-0.30;99.90
60868;DHT22;46702;48.370;10.794;2023-03-02T07:23:03;-0.20;99.90
60868;DHT22;46702;48.370;10.794;2023-03-02T07:25:29;-0.20;99.90
60868;DHT22;46702;48.370;10.794;2023-03-02T07:27:54;-0.10;99.90
60868;DHT22;46702;48.370;10.794;2023-03-02T07:30:20;0.00;99.90
60868;DHT22;46702;48.370;10.794;2023-03-02T07:32:50;0.10;99.90
60868;DHT22;46702;48.370;10.794;2023-03-02T07:35:16;0.10;99.90
60868;DHT22;46702;48.370;10.794;2023-03-02T07:37:42;0.20;99.90
60868;DHT22;46702;48.370;10.794;2023-03-02T07:40:10;0.30;99.90
60868;DHT22;46702;48.370;10.794;2023-03-02T07:42:36;0.30;99.90
60868;DHT22;46702;48.370;10.794;2023-03-02T07:45:03;0.40;99.90
60868;DHT22;46702;48.370;10.794;2023-03-02T07:47:29;0.60;99.90
60868;DHT22;46702;48.370;10.794;2023-03-02T07:49:55;0.70;99.90
60868;DHT22;46702;48.370;10.794;2023-03-02T07:52:20;0.60;99.90
60868;DHT22;46702;48.370;10.794;2023-03-02T07:54:46;0.70;99.90
60868;DHT22;46702;48.370;10.794;2023-03-02T07:57:12;0.80;99.90
60868;DHT22;46702;48.370;10.794;2023-03-02T07:59:41;0.90;99.90
60868;DHT22;46702;48.370;10.794;2023-03-02T08:02:11;0.90;99.90
60868;DHT22;46702;48.370;10.794;2023-03-02T08:04:39;1.00;99.90
60868;DHT22;46702;48.370;10.794;2023-03-02T08:07:05;1.10;99.90
60868;DHT22;46702;48.370;10.794;2023-03-02T08:09:30;1.20;99.90
60868;DHT22;46702;48.370;10.794;2023-03-02T08:11:56;1.30;99.90
60868;DHT22;46702;48.370;10.794;2023-03-02T08:14:21;1.40;99.90
60868;DHT22;46702;48.370;10.794;2023-03-02T08:16:48;1.60;99.90
60868;DHT22;46702;48.370;10.794;2023-03-02T08:19:14;1.60;99.90
60868;DHT22;46702;48.370;10.794;2023-03-02T08:21:40;1.60;99.90
60868;DHT22;46702;48.370;10.794;2023-03-02T08:24:05;1.80;99.90
60868;DHT22;46702;48.370;10.794;2023-03-02T08:26:31;1.80;99.90
60868;DHT22;46702;48.370;10.794;2023-03-02T08:28:58;1.80;99.90
60868;DHT22;46702;48.370;10.794;2023-03-02T08:31:24;2.00;99.90
60868;DHT22;46702;48.370;10.794;2023-03-02T08:33:50;2.10;99.90
60868;DHT22;46702;48.370;10.794;2023-03-02T08:36:17;2.10;99.90
60868;DHT22;46702;48.370;10.794;2023-03-02T08:38:43;2.20;99.90
60868;DHT22;46702;48.370;10.794;2023-03-02T08:41:13;2.30;99.90
60868;DHT22;46702;48.370;10.794;2023-03-02T08:43:39;2.50;99.90
60868;DHT22;46702;48.370;10.794;2023-03-02T08:46:04;2.60;99.90
60868;DHT22;46702;48.370;10.794;2023-03-02T08:48:31;2.70;99.90
60868;DHT22;46702;48.370;10.794;2023-03-02T08:51:02;2.80;99.90
60868;DHT22;46702;48.370;10.794;2023-03-02T08:53:31;2.90;99.90
60868;DHT22;46702;48.370;10.794;2023-03-02T08:55:57;2.90;99.90
60868;DHT22;46702;48.370;10.794;2023-03-02T08:58:23;2.90;99.90
60868;DHT22;46702;48.370;10.794;2023-03-02T09:00:49;3.00;99.90
60868;DHT22;46702;48.370;10.794;2023-03-02T09:03:15;3.10;99.90
60868;DHT22;46702;48.370;10.794;2023-03-02T09:05:40;3.00;99.90
60868;DHT22;46702;48.370;10.794;2023-03-02T09:08:06;3.10;99.90
60868;DHT22;46702;48.370;10.794;2023-03-02T09:10:32;3.20;99.90
60868;DHT22;46702;48.370;10.794;2023-03-02T09:12:58;3.10;99.90
60868;DHT22;46702;48.370;10.794;2023-03-02T09:15:24;3.20;99.90
60868;DHT22;46702;48.370;10.794;2023-03-02T09:17:49;3.30;99.90
60868;DHT22;46702;48.370;10.794;2023-03-02T09:20:15;3.30;99.90
60868;DHT22;46702;48.370;10.794;2023-03-02T09:22:41;3.30;99.90
60868;DHT22;46702;48.370;10.794;2023-03-02T09:25:13;3.40;99.90
60868;DHT22;46702;48.370;10.794;2023-03-02T09:27:39;3.60;99.90
60868;DHT22;46702;48.370;10.794;2023-03-02T09:30:06;3.80;99.90
60868;DHT22;46702;48.370;10.794;2023-03-02T09:32:32;3.90;99.90
60868;DHT22;46702;48.370;10.794;2023-03-02T09:34:57;4.00;99.90
60868;DHT22;46702;48.370;10.794;2023-03-02T09:37:23;4.30;99.90
60868;DHT22;46702;48.370;10.794;2023-03-02T09:39:50;4.40;99.90
60868;DHT22;46702;48.370;10.794;2023-03-02T09:42:46;4.30;99.90
60868;DHT22;46702;48.370;10.794;2023-03-02T09:50:39;4.10;99.90
60868;DHT22;46702;48.370;10.794;2023-03-02T09:53:34;4.10;99.90
60868;DHT22;46702;48.370;10.794;2023-03-02T09:56:02;4.30;99.90
60868;DHT22;46702;48.370;10.794;2023-03-02T09:58:34;4.40;99.90
60868;DHT22;46702;48.370;10.794;2023-03-02T10:01:05;4.50;99.90
60868;DHT22;46702;48.370;10.794;2023-03-02T10:04:42;4.60;99.90
60868;DHT22;46702;48.370;10.794;2023-03-02T10:06:57;4.60;99.90
60868;DHT22;46702;48.370;10.794;2023-03-02T10:09:24;4.60;99.90
60868;DHT22;46702;48.370;10.794;2023-03-02T10:11:58;4.60;99.90
60868;DHT22;46702;48.370;10.794;2023-03-02T10:14:33;4.80;99.90
60868;DHT22;46702;48.370;10.794;2023-03-02T10:17:22;4.90;99.90
60868;DHT22;46702;48.370;10.794;2023-03-02T10:20:18;5.20;99.90
60868;DHT22;46702;48.370;10.794;2023-03-02T10:22:49;5.30;99.90
60868;DHT22;46702;48.370;10.794;2023-03-02T10:25:30;5.10;99.90
60868;DHT22;46702;48.370;10.794;2023-03-02T10:28:27;5.00;99.90
60868;DHT22;46702;48.370;10.794;2023-03-02T10:31:07;5.00;99.90
60868;DHT22;46702;48.370;10.794;2023-03-02T10:33:36;5.30;99.90
60868;DHT22;46702;48.370;10.794;2023-03-02T10:36:05;5.30;99.90
60868;DHT22;46702;48.370;10.794;2023-03-02T10:38:37;5.40;99.90
60868;DHT22;46702;48.370;10.794;2023-03-02T10:41:04;5.40;99.90
60868;DHT22;46702;48.370;10.794;2023-03-02T10:43:36;5.60;99.90
60868;DHT22;46702;48.370;10.794;2023-03-02T10:46:06;5.50;99.90
60868;DHT22;46702;48.370;10.794;2023-03-02T10:48:55;5.70;99.90
60868;DHT22;46702;48.370;10.794;2023-03-02T10:51:30;5.90;99.90
60868;DHT22;46702;48.370;10.794;2023-03-02T10:54:22;5.90;99.90
60868;DHT22;46702;48.370;10.794;2023-03-02T10:56:52;5.90;99.90
60868;DHT22;46702;48.370;10.794;2023-03-02T11:01:59;6.00;99.90
60868;DHT22;46702;48.370;10.794;2023-03-02T11:04:27;5.90;99.90
60868;DHT22;46702;48.370;10.794;2023-03-02T11:06:53;6.10;99.90
60868;DHT22;46702;48.370;10.794;2023-03-02T11:09:18;6.00;99.90
60868;DHT22;46702;48.370;10.794;2023-03-02T11:11:54;6.30;99.90
60868;DHT22;46702;48.370;10.794;2023-03-02T11:14:20;6.40;99.90
60868;DHT22;46702;48.370;10.794;2023-03-02T11:16:49;6.50;99.90
60868;DHT22;46702;48.370;10.794;2023-03-02T11:19:23;6.60;99.90
60868;DHT22;46702;48.370;10.794;2023-03-02T11:22:13;6.70;99.90
60868;DHT22;46702;48.370;10.794;2023-03-02T11:24:50;6.70;99.90
60868;DHT22;46702;48.370;10.794;2023-03-02T11:27:26;6.80;99.90
60868;DHT22;46702;48.370;10.794;2023-03-02T11:29:58;6.80;99.90
60868;DHT22;46702;48.370;10.794;2023-03-02T11:32:36;7.00;99.90
60868;DHT22;46702;48.370;10.794;2023-03-02T11:35:11;6.90;99.90
60868;DHT22;46702;48.370;10.794;2023-03-02T11:42:42;7.30;99.90
60868;DHT22;46702;48.370;10.794;2023-03-02T11:47:38;7.40;99.90
60868;DHT22;46702;48.370;10.794;2023-03-02T11:50:06;7.40;99.90
60868;DHT22;46702;48.370;10.794;2023-03-02T11:52:37;7.40;99.90
60868;DHT22;46702;48.370;10.794;2023-03-02T11:55:22;7.70;99.90
60868;DHT22;46702;48.370;10.794;2023-03-02T11:57:56;7.60;99.90
60868;DHT22;46702;48.370;10.794;2023-03-02T12:03:05;7.80;99.90
60868;DHT22;46702;48.370;10.794;2023-03-02T12:05:36;8.00;99.90
60868;DHT22;46702;48.370;10.794;2023-03-02T12:13:59;7.90;99.90
60868;DHT22;46702;48.370;10.794;2023-03-02T12:16:42;7.90;99.90
60868;DHT22;46702;48.370;10.794;2023-03-02T12:19:24;8.00;99.90
60868;DHT22;46702;48.370;10.794;2023-03-02T12:22:04;8.10;99.90
60868;DHT22;46702;48.370;10.794;2023-03-02T12:24:33;8.20;99.90
60868;DHT22;46702;48.370;10.794;2023-03-02T12:29:41;8.10;99.90
60868;DHT22;46702;48.370;10.794;2023-03-02T12:34:52;8.40;99.90
60868;DHT22;46702;48.370;10.794;2023-03-02T12:37:26;8.60;99.90
60868;DHT22;46702;48.370;10.794;2023-03-02T12:45:39;8.50;99.90
60868;DHT22;46702;48.370;10.794;2023-03-02T12:51:02;8.80;99.90
60868;DHT22;46702;48.370;10.794;2023-03-02T12:53:29;8.60;99.90
60868;DHT22;46702;48.370;10.794;2023-03-02T12:55:55;8.70;99.90
60868;DHT22;46702;48.370;10.794;2023-03-02T12:58:24;8.70;99.90
60868;DHT22;46702;48.370;10.794;2023-03-02T13:00:57;8.80;99.90
60868;DHT22;46702;48.370;10.794;2023-03-02T13:03:25;8.80;99.90
60868;DHT22;46702;48.370;10.794;2023-03-02T13:05:58;8.90;99.90
60868;DHT22;46702;48.370;10.794;2023-03-02T13:08:26;8.90;99.90
60868;DHT22;46702;48.370;10.794;2023-03-02T13:10:56;9.00;99.90
60868;DHT22;46702;48.370;10.794;2023-03-02T13:13:25;8.90;99.90
60868;DHT22;46702;48.370;10.794;2023-03-02T13:15:55;8.90;99.90
60868;DHT22;46702;48.370;10.794;2023-03-02T13:18:23;9.00;99.90
60868;DHT22;46702;48.370;10.794;2023-03-02T13:20:50;9.10;99.90
60868;DHT22;46702;48.370;10.794;2023-03-02T13:23:17;9.10;99.90
60868;DHT22;46702;48.370;10.794;2023-03-02T13:28:32;9.00;99.90
60868;DHT22;46702;48.370;10.794;2023-03-02T13:31:19;9.00;99.90
60868;DHT22;46702;48.370;10.794;2023-03-02T13:33:46;9.10;99.90
60868;DHT22;46702;48.370;10.794;2023-03-02T13:36:21;9.10;99.90
60868;DHT22;46702;48.370;10.794;2023-03-02T13:38:50;9.10;99.90
60868;DHT22;46702;48.370;10.794;2023-03-02T13:41:21;9.10;99.90
60868;DHT22;46702;48.370;10.794;2023-03-02T13:43:47;9.20;99.90
60868;DHT22;46702;48.370;10.794;2023-03-02T13:48:52;9.20;99.90
60868;DHT22;46702;48.370;10.794;2023-03-02T13:51:18;9.30;99.90
60868;DHT22;46702;48.370;10.794;2023-03-02T13:56:17;9.40;99.90
60868;DHT22;46702;48.370;10.794;2023-03-02T13:58:43;9.40;99.90
60868;DHT22;46702;48.370;10.794;2023-03-02T14:01:10;9.50;99.80
60868;DHT22;46702;48.370;10.794;2023-03-02T14:03:37;9.50;99.60
60868;DHT22;46702;48.370;10.794;2023-03-02T14:06:03;9.40;99.80
60868;DHT22;46702;48.370;10.794;2023-03-02T14:08:31;9.30;99.20
60868;DHT22;46702;48.370;10.794;2023-03-02T14:10:58;9.40;99.70
60868;DHT22;46702;48.370;10.794;2023-03-02T14:15:54;9.60;99.90
60868;DHT22;46702;48.370;10.794;2023-03-02T14:21:04;9.70;99.70
60868;DHT22;46702;48.370;10.794;2023-03-02T14:23:30;9.80;99.70
60868;DHT22;46702;48.370;10.794;2023-03-02T14:25:56;10.00;99.90
60868;DHT22;46702;48.370;10.794;2023-03-02T14:28:30;10.10;99.90
60868;DHT22;46702;48.370;10.794;2023-03-02T14:30:57;10.20;99.90
60868;DHT22;46702;48.370;10.794;2023-03-02T14:33:23;10.20;99.90
60868;DHT22;46702;48.370;10.794;2023-03-02T14:35:52;9.90;99.90
60868;DHT22;46702;48.370;10.794;2023-03-02T14:38:20;9.80;99.90
60868;DHT22;46702;48.370;10.794;2023-03-02T14:40:46;9.80;99.90
60868;DHT22;46702;48.370;10.794;2023-03-02T14:43:11;9.70;99.90
60868;DHT22;46702;48.370;10.794;2023-03-02T14:45:37;9.50;99.90
60868;DHT22;46702;48.370;10.794;2023-03-02T14:48:03;9.40;99.90
60868;DHT22;46702;48.370;10.794;2023-03-02T14:50:28;9.30;99.90
60868;DHT22;46702;48.370;10.794;2023-03-02T14:52:57;9.30;99.90
60868;DHT22;46702;48.370;10.794;2023-03-02T14:55:28;9.30;99.90
60868;DHT22;46702;48.370;10.794;2023-03-02T14:58:16;9.20;99.90
60868;DHT22;46702;48.370;10.794;2023-03-02T15:00:44;9.20;99.90
60868;DHT22;46702;48.370;10.794;2023-03-02T15:03:16;9.20;99.90
60868;DHT22;46702;48.370;10.794;2023-03-02T15:05:44;9.10;99.90
60868;DHT22;46702;48.370;10.794;2023-03-02T15:08:11;9.00;99.90
60868;DHT22;46702;48.370;10.794;2023-03-02T15:10:38;9.00;99.90
60868;DHT22;46702;48.370;10.794;2023-03-02T15:13:07;9.00;99.90
60868;DHT22;46702;48.370;10.794;2023-03-02T15:15:33;8.90;99.90
60868;DHT22;46702;48.370;10.794;2023-03-02T15:17:58;8.90;99.90
60868;DHT22;46702;48.370;10.794;2023-03-02T15:20:24;8.80;99.90
60868;DHT22;46702;48.370;10.794;2023-03-02T15:22:49;8.70;99.90
60868;DHT22;46702;48.370;10.794;2023-03-02T15:25:15;8.70;99.90
60868;DHT22;46702;48.370;10.794;2023-03-02T15:27:41;8.70;99.90
60868;DHT22;46702;48.370;10.794;2023-03-02T15:30:07;8.50;99.90
60868;DHT22;46702;48.370;10.794;2023-03-02T15:32:35;8.50;99.90
60868;DHT22;46702;48.370;10.794;2023-03-02T15:35:00;8.40;99.90
60868;DHT22;46702;48.370;10.794;2023-03-02T15:37:26;8.30;99.90
60868;DHT22;46702;48.370;10.794;2023-03-02T15:39:53;8.30;99.90
60868;DHT22;46702;48.370;10.794;2023-03-02T15:42:19;8.20;99.90
60868;DHT22;46702;48.370;10.794;2023-03-02T15:44:45;8.10;99.90
60868;DHT22;46702;48.370;10.794;2023-03-02T15:47:10;8.00;99.90
60868;DHT22;46702;48.370;10.794;2023-03-02T15:49:36;8.00;99.90
60868;DHT22;46702;48.370;10.794;2023-03-02T15:52:02;7.90;99.90
60868;DHT22;46702;48.370;10.794;2023-03-02T15:54:28;7.80;99.90
60868;DHT22;46702;48.370;10.794;2023-03-02T15:56:53;7.80;99.90
60868;DHT22;46702;48.370;10.794;2023-03-02T15:59:21;7.70;99.90
60868;DHT22;46702;48.370;10.794;2023-03-02T16:01:47;7.70;99.90
60868;DHT22;46702;48.370;10.794;2023-03-02T16:04:12;7.50;99.90
60868;DHT22;46702;48.370;10.794;2023-03-02T16:06:38;7.50;99.90
60868;DHT22;46702;48.370;10.794;2023-03-02T16:09:04;7.50;99.90
60868;DHT22;46702;48.370;10.794;2023-03-02T16:11:29;7.50;99.90
60868;DHT22;46702;48.370;10.794;2023-03-02T16:13:55;7.50;99.90
60868;DHT22;46702;48.370;10.794;2023-03-02T16:16:21;7.40;99.90
60868;DHT22;46702;48.370;10.794;2023-03-02T16:18:54;7.30;99.90
60868;DHT22;46702;48.370;10.794;2023-03-02T16:21:21;7.20;99.90
60868;DHT22;46702;48.370;10.794;2023-03-02T16:23:46;7.10;99.90
60868;DHT22;46702;48.370;10.794;2023-03-02T16:26:14;6.90;99.90
60868;DHT22;46702;48.370;10.794;2023-03-02T16:28:40;6.80;99.90
60868;DHT22;46702;48.370;10.794;2023-03-02T16:31:10;6.70;99.90
60868;DHT22;46702;48.370;10.794;2023-03-02T16:33:36;6.60;99.90
60868;DHT22;46702;48.370;10.794;2023-03-02T16:36:02;6.50;99.90